AIRPORT ID: M17

DATE: 2024-06-16 ZULU TIME: 16.15 LOCAL TIME: 11.15


METAR KM17 161615Z AUTO 20007KT 170V230 10SM 29/24 A2996

ALTIMETER: A2996 Q1015

DENSITY ALT: 2800 Ft

WIND DIRECT: 200

WIND SPEED: 7 Gust

WIND CONDITIONS:

VISIBILTY: 10SM 9999M

TEMPERATURE: 84 F 29 C

DEW POINT: 75 F 24 C

HUMID: 74%

LCL: 3,000-5,000 feet

RADIO CHECK: 0

ADVISARIES: 0

GREETINGS: 0

CONVERSATIONS: 0